Time;durP1;ratioP1;P1;durP2;ratioP2;P2;SDS_P1;SDS_P2;PMS_P1;PMS_P2;Temp;Humidity;BMP_temperature;BMP_pressure;BME280_temperature;BME280_humidity;BME280_pressure;Samples;Min_cycle;Max_cycle;Signal;HPM_P1;HPM_P2
2022/08/18 00:02:29;;;;;;;9.27;8.37;;;20.90;99.40;;;;;;5032397;28;20600;-59
2022/08/18 00:04:58;;;;;;;9.03;8.13;;;20.80;99.30;;;;;;5030827;28;20543;-59
2022/08/18 00:07:28;;;;;;;8.43;7.63;;;20.80;99.40;;;;;;5032233;28;20517;-59
2022/08/18 00:09:57;;;;;;;10.20;8.97;;;20.80;99.40;;;;;;5032764;28;20458;-59
2022/08/18 00:12:27;;;;;;;9.10;8.30;;;20.80;99.40;;;;;;5030950;28;20548;-58
2022/08/18 00:14:56;;;;;;;10.43;9.43;;;20.80;99.50;;;;;;5032413;28;20908;-59
2022/08/18 00:17:23;;;;;;;8.90;8.13;;;20.80;99.50;;;;;;5032217;28;20572;-59
2022/08/18 00:19:52;;;;;;;14.30;8.40;;;20.80;99.40;;;;;;5031204;28;20555;-59
2022/08/18 00:22:21;;;;;;;9.13;8.20;;;20.80;99.40;;;;;;5032482;28;20545;-59
2022/08/18 00:24:55;;;;;;;9.77;8.60;;;20.80;99.40;;;;;;5032549;28;20540;-59
2022/08/18 00:27:24;;;;;;;9.20;8.30;;;20.80;99.50;;;;;;5037198;28;20556;-59
2022/08/18 00:29:52;;;;;;;12.10;9.40;;;20.80;99.60;;;;;;5036014;28;20960;-56
2022/08/18 00:32:22;;;;;;;11.07;10.00;;;20.80;99.90;;;;;;5035769;28;20551;-59
2022/08/18 00:34:51;;;;;;;10.77;9.63;;;20.80;99.90;;;;;;5035555;28;20512;-59
2022/08/18 00:37:18;;;;;;;10.33;8.77;;;20.80;99.90;;;;;;5036605;28;20555;-58
2022/08/18 00:39:45;;;;;;;11.70;9.83;;;20.80;99.90;;;;;;5036319;28;20536;-59
2022/08/18 00:42:15;;;;;;;11.97;10.87;;;20.70;99.90;;;;;;5035875;28;20911;-59
2022/08/18 00:44:42;;;;;;;12.30;10.10;;;20.70;99.90;;;;;;5020552;28;20479;-59
2022/08/18 00:47:10;;;;;;;13.13;10.70;;;20.70;99.90;;;;;;5035325;28;20591;-60
2022/08/18 00:49:40;;;;;;;11.37;10.10;;;20.60;99.90;;;;;;5035824;28;21023;-59
2022/08/18 00:52:11;;;;;;;13.60;11.67;;;20.60;99.90;;;;;;5034789;28;20963;-58
2022/08/18 00:54:40;;;;;;;12.40;11.20;;;20.60;99.90;;;;;;5034905;28;20556;-59
2022/08/18 00:57:09;;;;;;;14.67;13.00;;;20.60;99.90;;;;;;5036408;28;20476;-59
2022/08/18 00:59:42;;;;;;;13.60;12.30;;;20.50;99.90;;;;;;5035269;28;20465;-59
2022/08/18 01:02:13;;;;;;;13.70;12.33;;;20.50;99.90;;;;;;5035568;28;20991;-59
2022/08/18 01:04:45;;;;;;;13.07;11.83;;;20.50;99.90;;;;;;5035858;28;20540;-60
2022/08/18 01:07:19;;;;;;;14.60;13.20;;;20.40;99.90;;;;;;5036339;28;20511;-59
2022/08/18 01:09:47;;;;;;;14.17;12.87;;;20.40;99.90;;;;;;5035435;28;20485;-59
2022/08/18 01:12:14;;;;;;;18.97;17.03;;;20.40;99.90;;;;;;5035433;28;20909;-59
2022/08/18 01:14:41;;;;;;;16.37;14.73;;;20.40;99.90;;;;;;5034269;28;20585;-58
2022/08/18 01:22:51;;;;;;;19.30;16.70;;;20.40;99.90;;;;;;5035168;28;20802;-58
2022/08/18 01:28:06;;;;;;;19.70;17.73;;;20.30;99.90;;;;;;5035124;28;20527;-59
2022/08/18 01:30:46;;;;;;;22.20;18.63;;;20.30;99.90;;;;;;5035033;28;20492;-59
2022/08/18 01:33:14;;;;;;;19.37;17.27;;;20.30;99.90;;;;;;5035746;28;20435;-59
2022/08/18 01:35:43;;;;;;;21.57;19.27;;;20.30;99.90;;;;;;5035126;28;20572;-58
2022/08/18 01:38:12;;;;;;;22.57;19.97;;;20.30;99.90;;;;;;5032627;28;21071;-59
2022/08/18 01:40:39;;;;;;;22.03;19.63;;;20.20;99.90;;;;;;5034871;28;21028;-59
2022/08/18 01:43:06;;;;;;;21.40;19.30;;;20.20;99.90;;;;;;5034658;28;20544;-59
2022/08/18 01:45:34;;;;;;;22.40;20.00;;;20.20;99.90;;;;;;5033436;28;20453;-58
2022/08/18 01:48:03;;;;;;;28.23;20.73;;;20.10;99.90;;;;;;5033503;28;20864;-60
2022/08/18 01:50:33;;;;;;;21.27;19.03;;;20.10;99.90;;;;;;5033205;28;20465;-58
2022/08/18 01:53:00;;;;;;;23.10;20.80;;;20.10;99.90;;;;;;5034683;28;20837;-59
2022/08/18 01:55:29;;;;;;;19.83;17.80;;;20.00;99.90;;;;;;5036031;28;21068;-60
2022/08/18 01:57:56;;;;;;;18.27;16.43;;;19.90;99.90;;;;;;5034730;28;20887;-60
2022/08/18 02:00:25;;;;;;;19.97;17.93;;;19.90;99.90;;;;;;5033529;28;20497;-60
2022/08/18 02:02:52;;;;;;;20.87;18.33;;;19.80;99.90;;;;;;5034474;28;20457;-60
2022/08/18 02:05:28;;;;;;;21.80;19.67;;;19.80;99.90;;;;;;5034474;28;20548;-60
2022/08/18 02:07:55;;;;;;;22.23;19.90;;;19.80;99.90;;;;;;5034398;28;20563;-60
2022/08/18 02:10:22;;;;;;;22.70;20.30;;;19.80;99.90;;;;;;5033661;28;20532;-60
2022/08/18 02:12:51;;;;;;;22.50;20.30;;;19.80;99.90;;;;;;5032482;28;20552;-59
2022/08/18 02:15:18;;;;;;;20.50;18.23;;;19.80;99.90;;;;;;5033385;28;20579;-61
2022/08/18 02:17:46;;;;;;;24.10;21.60;;;19.80;99.90;;;;;;5034759;28;20997;-60
2022/08/18 02:20:17;;;;;;;22.33;19.93;;;19.80;99.90;;;;;;5034243;28;20477;-60
2022/08/18 02:22:45;;;;;;;21.23;19.03;;;19.70;99.90;;;;;;5034580;28;20552;-60
2022/08/18 02:25:14;;;;;;;23.33;20.27;;;19.70;99.90;;;;;;5032300;28;20561;-61
2022/08/18 02:27:41;;;;;;;25.37;22.60;;;19.70;99.90;;;;;;5033764;28;20483;-60
2022/08/18 02:30:15;;;;;;;26.53;22.83;;;19.60;99.90;;;;;;5032355;28;20871;-60
2022/08/18 02:32:42;;;;;;;28.03;25.03;;;19.60;99.90;;;;;;5034799;28;20504;-61
2022/08/18 02:35:11;;;;;;;29.43;22.60;;;19.60;99.90;;;;;;5033251;28;21020;-60
2022/08/18 02:37:38;;;;;;;28.00;24.70;;;19.60;99.90;;;;;;5033494;28;20480;-61
2022/08/18 02:40:06;;;;;;;28.13;25.10;;;19.70;99.90;;;;;;5033858;28;20547;-60
2022/08/18 02:42:33;;;;;;;26.77;23.90;;;19.70;99.90;;;;;;5033238;28;20540;-61
2022/08/18 02:45:01;;;;;;;30.20;24.97;;;19.70;99.90;;;;;;5032856;28;20547;-60
2022/08/18 02:47:30;;;;;;;27.20;24.40;;;19.70;99.90;;;;;;5064303;23;20487;-59
2022/08/18 02:49:57;;;;;;;28.73;25.37;;;19.70;99.90;;;;;;5072476;28;20490;-59
2022/08/18 02:52:26;;;;;;;26.63;23.83;;;19.70;99.90;;;;;;5073953;28;20551;-59
2022/08/18 02:54:53;;;;;;;30.07;25.00;;;19.60;99.90;;;;;;5072258;28;20512;-58
2022/08/18 02:57:21;;;;;;;28.80;25.07;;;19.60;99.90;;;;;;5073934;28;20519;-59
2022/08/18 02:59:48;;;;;;;26.83;23.87;;;19.60;99.90;;;;;;5073700;28;20535;-58
2022/08/18 03:02:15;;;;;;;29.07;26.17;;;19.60;99.90;;;;;;5072818;28;20501;-60
2022/08/18 03:04:44;;;;;;;30.30;25.37;;;19.60;99.90;;;;;;5072019;28;20451;-59
2022/08/18 03:07:11;;;;;;;28.60;25.03;;;19.60;99.90;;;;;;5073477;28;20579;-59
2022/08/18 03:09:38;;;;;;;28.37;25.33;;;19.60;99.90;;;;;;5072511;28;20491;-63
2022/08/18 03:12:07;;;;;;;30.13;26.17;;;19.50;99.90;;;;;;5073881;28;20534;-59
2022/08/18 03:14:35;;;;;;;30.17;26.87;;;19.50;99.90;;;;;;5072702;28;22085;-60
2022/08/18 03:17:07;;;;;;;31.50;26.67;;;19.50;99.90;;;;;;5071719;28;21013;-60
2022/08/18 03:19:34;;;;;;;28.23;25.23;;;19.50;99.90;;;;;;5073363;28;20542;-59
2022/08/18 03:22:04;;;;;;;28.90;25.70;;;19.50;99.90;;;;;;5072683;28;21006;-58
2022/08/18 03:24:32;;;;;;;31.83;25.40;;;19.60;99.90;;;;;;5071818;28;21060;-60
2022/08/18 03:27:00;;;;;;;30.27;26.97;;;19.50;99.90;;;;;;5073678;28;20537;-59
2022/08/18 03:29:27;;;;;;;30.13;26.20;;;19.60;99.90;;;;;;5072307;28;20451;-58
2022/08/18 03:31:55;;;;;;;29.13;26.03;;;19.60;99.90;;;;;;5072624;28;20955;-59
2022/08/18 03:34:22;;;;;;;31.73;27.00;;;19.60;99.90;;;;;;5072266;28;20487;-59
2022/08/18 03:36:51;;;;;;;32.40;27.00;;;19.60;99.90;;;;;;5073779;28;20558;-59
2022/08/18 03:39:22;;;;;;;31.97;26.80;;;19.60;99.90;;;;;;5073091;28;20489;-59
2022/08/18 03:41:53;;;;;;;32.13;28.83;;;19.60;99.90;;;;;;5072810;28;20463;-59
2022/08/18 03:44:21;;;;;;;33.57;28.37;;;19.50;99.90;;;;;;5074873;28;20487;-58
2022/08/18 03:46:49;;;;;;;33.87;30.20;;;19.50;99.90;;;;;;5076951;28;20463;-58
2022/08/18 03:49:17;;;;;;;37.23;30.10;;;19.50;99.90;;;;;;5076461;28;20527;-59
2022/08/18 03:51:46;;;;;;;36.17;30.17;;;19.50;99.90;;;;;;5077390;28;20463;-58
2022/08/18 03:54:15;;;;;;;37.77;30.53;;;19.40;99.90;;;;;;5077254;28;20459;-59
2022/08/18 03:56:46;;;;;;;35.67;30.10;;;19.40;99.90;;;;;;5073503;28;20483;-58
2022/08/18 03:59:16;;;;;;;33.87;30.07;;;19.40;99.90;;;;;;5074451;28;20459;-59
2022/08/18 04:01:44;;;;;;;34.70;30.83;;;19.30;99.90;;;;;;5059614;28;20509;-59
2022/08/18 04:04:14;;;;;;;33.93;28.23;;;19.30;99.90;;;;;;5073991;28;20542;-58
2022/08/18 04:10:08;;;;;;;34.87;30.90;;;19.20;99.90;;;;;;5082765;27;20559;-59
2022/08/18 04:12:38;;;;;;;36.07;29.20;;;19.20;99.90;;;;;;5052253;28;20816;-61
2022/08/18 04:15:06;;;;;;;35.10;29.83;;;19.20;99.90;;;;;;5060643;28;20463;-59
2022/08/18 04:17:33;;;;;;;37.03;29.03;;;19.20;99.90;;;;;;5070381;28;20472;-59
2022/08/18 04:20:00;;;;;;;37.10;30.20;;;19.20;99.90;;;;;;5068583;28;20459;-58
2022/08/18 04:22:28;;;;;;;33.10;28.53;;;19.10;99.90;;;;;;5068924;28;20550;-62
2022/08/18 04:24:55;;;;;;;34.20;29.27;;;19.10;99.90;;;;;;5071714;28;20546;-59
2022/08/18 04:27:24;;;;;;;34.97;28.83;;;19.10;99.90;;;;;;5071319;28;20490;-59
2022/08/18 04:29:51;;;;;;;40.87;29.20;;;19.10;99.90;;;;;;5068221;28;20566;-59
2022/08/18 04:32:19;;;;;;;31.03;27.60;;;19.10;99.90;;;;;;5066434;28;20558;-63
2022/08/18 04:34:46;;;;;;;32.33;27.20;;;19.10;99.90;;;;;;5068714;28;20456;-58
2022/08/18 04:37:14;;;;;;;31.40;28.10;;;19.10;99.90;;;;;;5069758;28;20474;-58
2022/08/18 04:39:41;;;;;;;28.23;25.10;;;19.10;99.90;;;;;;5065055;28;20495;-59
2022/08/18 04:42:09;;;;;;;28.97;25.60;;;19.20;99.90;;;;;;5070248;28;20450;-58
2022/08/18 04:44:37;;;;;;;28.23;22.70;;;19.30;99.90;;;;;;5069268;28;20561;-58
2022/08/18 04:47:06;;;;;;;24.83;22.10;;;19.40;99.90;;;;;;5069081;28;20554;-59
2022/08/18 04:49:33;;;;;;;28.30;25.20;;;19.50;99.90;;;;;;5063859;28;20498;-59
2022/08/18 04:54:45;;;;;;;25.03;22.33;;;19.70;99.90;;;;;;5065433;28;20438;-59
2022/08/18 04:57:14;;;;;;;27.17;24.27;;;19.80;99.90;;;;;;5068912;28;20455;-59
2022/08/18 04:59:45;;;;;;;26.53;22.70;;;19.80;99.90;;;;;;5052594;28;20455;-58
2022/08/18 05:02:13;;;;;;;24.80;21.70;;;19.80;99.90;;;;;;5062547;28;20462;-58
2022/08/18 05:04:45;;;;;;;24.93;21.97;;;19.90;99.90;;;;;;5065414;28;20455;-58
2022/08/18 05:07:14;;;;;;;24.70;22.00;;;20.00;99.90;;;;;;5053516;28;20447;-58
2022/08/18 05:09:42;;;;;;;26.40;23.00;;;20.00;99.90;;;;;;5051754;28;20490;-58
2022/08/18 05:12:13;;;;;;;30.63;25.63;;;20.00;99.90;;;;;;5068602;28;20439;-59
2022/08/18 05:14:43;;;;;;;24.70;22.20;;;20.10;99.90;;;;;;5067613;28;21038;-58
2022/08/18 05:17:11;;;;;;;26.00;22.43;;;20.10;99.90;;;;;;5060213;28;20532;-58
2022/08/18 05:19:38;;;;;;;28.67;23.57;;;20.20;99.90;;;;;;5066090;28;20479;-58
2022/08/18 05:22:06;;;;;;;30.30;25.43;;;20.30;99.90;;;;;;5055734;28;20446;-58
2022/08/18 05:24:34;;;;;;;23.43;20.93;;;20.30;99.90;;;;;;5055791;28;20450;-58
2022/08/18 05:27:02;;;;;;;27.57;24.67;;;20.40;99.90;;;;;;5056307;28;20466;-58
2022/08/18 05:29:35;;;;;;;24.10;21.60;;;20.40;99.90;;;;;;5056069;28;20487;-58
2022/08/18 05:32:06;;;;;;;31.80;23.80;;;20.30;99.90;;;;;;5051195;28;20445;-58
2022/08/18 05:34:35;;;;;;;24.93;21.70;;;20.40;99.90;;;;;;5036061;28;20962;-58
2022/08/18 05:37:13;;;;;;;28.03;23.53;;;20.30;99.90;;;;;;5035873;28;20955;-60
2022/08/18 05:39:47;;;;;;;27.03;23.10;;;20.30;99.90;;;;;;5035977;28;20894;-57
2022/08/18 05:42:18;;;;;;;25.90;22.80;;;20.30;99.90;;;;;;5035748;28;20433;-58
2022/08/18 05:44:49;;;;;;;25.00;22.30;;;20.30;99.90;;;;;;5035574;28;20472;-58
2022/08/18 05:47:24;;;;;;;28.60;24.40;;;20.40;99.90;;;;;;5036052;28;20457;-57
2022/08/18 05:49:54;;;;;;;27.13;22.53;;;20.50;99.90;;;;;;5035760;28;20552;-56
2022/08/18 05:52:28;;;;;;;26.80;23.90;;;20.60;99.90;;;;;;5035202;28;20461;-57
2022/08/18 05:57:50;;;;;;;29.30;24.83;;;20.70;99.90;;;;;;5035209;28;20452;-58
2022/08/18 06:00:19;;;;;;;27.17;24.20;;;20.80;99.90;;;;;;5052936;28;20482;-58
2022/08/18 06:02:56;;;;;;;27.30;22.07;;;20.80;99.90;;;;;;5055211;28;20452;-56
2022/08/18 06:05:28;;;;;;;27.60;23.37;;;21.00;99.90;;;;;;5055334;28;20460;-56
2022/08/18 06:07:59;;;;;;;29.43;25.87;;;21.10;99.90;;;;;;5045730;28;20490;-57
2022/08/18 06:10:27;;;;;;;29.17;24.63;;;21.30;99.90;;;;;;5034801;28;20461;-57
2022/08/18 06:12:58;;;;;;;30.00;26.07;;;21.30;99.90;;;;;;5035219;28;20546;-57
2022/08/18 06:15:30;;;;;;;27.47;24.60;;;21.40;99.90;;;;;;5048701;28;20545;-58
2022/08/18 06:18:27;;;;;;;32.60;26.57;;;21.40;99.90;;;;;;5042860;28;20488;-58
2022/08/18 06:21:32;;;;;;;29.30;26.10;;;21.40;99.90;;;;;;5042282;28;20438;-58
2022/08/18 06:24:08;;;;;;;34.27;28.90;;;21.40;99.90;;;;;;5042663;28;20446;-57
2022/08/18 06:26:45;;;;;;;34.30;29.90;;;21.40;99.90;;;;;;5040079;28;20535;-60
2022/08/18 06:29:32;;;;;;;32.90;29.07;;;21.30;99.90;;;;;;5034479;28;20513;-56
2022/08/18 06:32:10;;;;;;;38.50;30.80;;;21.30;99.90;;;;;;5052607;28;20828;-56
2022/08/18 06:35:00;;;;;;;32.27;28.30;;;21.20;99.90;;;;;;5053452;28;20568;-59
2022/08/18 06:37:33;;;;;;;36.73;28.70;;;21.10;99.90;;;;;;5054393;28;20549;-57
2022/08/18 06:40:00;;;;;;;32.57;28.93;;;21.00;99.90;;;;;;5056537;28;20525;-56
2022/08/18 06:42:30;;;;;;;33.17;28.40;;;21.00;99.90;;;;;;5057541;28;20463;-58
2022/08/18 06:45:02;;;;;;;35.10;29.60;;;20.90;99.90;;;;;;5054548;28;20446;-58
2022/08/18 06:47:39;;;;;;;35.07;28.60;;;20.90;99.90;;;;;;5053984;28;20979;-59
2022/08/18 06:50:15;;;;;;;34.83;29.93;;;21.00;99.90;;;;;;5053821;28;20564;-58
2022/08/18 06:52:53;;;;;;;32.43;28.47;;;21.00;99.90;;;;;;5053194;28;20553;-59
2022/08/18 06:55:33;;;;;;;34.90;29.40;;;21.00;99.90;;;;;;5054385;28;20499;-58
2022/08/18 06:58:02;;;;;;;40.40;33.27;;;21.00;99.90;;;;;;5054229;28;20477;-57
2022/08/18 07:00:32;;;;;;;42.33;32.90;;;20.90;99.90;;;;;;5053903;28;20890;-57
2022/08/18 07:03:06;;;;;;;38.60;31.77;;;21.00;99.90;;;;;;5054999;28;20537;-57
2022/08/18 07:05:37;;;;;;;44.10;34.80;;;20.90;99.90;;;;;;5037698;28;20561;-58
2022/08/18 07:08:15;;;;;;;38.10;32.10;;;20.90;99.90;;;;;;5033388;28;20490;-59
2022/08/18 07:10:44;;;;;;;38.33;31.60;;;20.90;99.90;;;;;;5052759;28;20483;-58
2022/08/18 07:13:26;;;;;;;41.73;34.40;;;20.90;99.90;;;;;;5053952;28;20507;-58
2022/08/18 07:15:55;;;;;;;42.67;34.00;;;20.90;99.90;;;;;;5054651;28;20523;-59
2022/08/18 07:18:26;;;;;;;41.10;34.33;;;20.80;99.90;;;;;;5055670;28;20586;-58
2022/08/18 07:20:57;;;;;;;44.60;32.93;;;20.70;99.90;;;;;;5054454;28;20540;-62
2022/08/18 07:23:29;;;;;;;43.40;35.40;;;20.70;99.90;;;;;;5054122;28;20572;-58
2022/08/18 07:26:05;;;;;;;47.83;36.27;;;20.70;99.90;;;;;;5052609;28;20534;-58
2022/08/18 07:28:35;;;;;;;44.57;33.17;;;20.70;99.90;;;;;;5053177;28;20562;-58
2022/08/18 07:31:29;;;;;;;45.43;32.50;;;20.70;99.90;;;;;;5052699;28;20469;-58
2022/08/18 07:34:02;;;;;;;44.23;31.33;;;20.80;99.90;;;;;;5034115;28;20778;-58
2022/08/18 07:36:37;;;;;;;45.17;34.40;;;20.80;99.90;;;;;;5033274;28;20461;-57
2022/08/18 07:39:13;;;;;;;37.77;31.60;;;20.80;99.90;;;;;;5033623;28;20555;-58
2022/08/18 07:41:52;;;;;;;39.57;30.73;;;20.90;99.90;;;;;;5033461;28;20436;-58
2022/08/18 07:44:27;;;;;;;38.77;30.90;;;20.90;99.90;;;;;;5036342;28;20556;-59
2022/08/18 07:46:59;;;;;;;38.30;30.00;;;20.90;99.90;;;;;;5045893;28;20445;-58
2022/08/18 07:49:32;;;;;;;36.40;29.53;;;21.00;99.90;;;;;;5034660;28;20486;-57
2022/08/18 07:52:06;;;;;;;35.87;29.77;;;21.00;99.90;;;;;;5050545;28;20488;-57
2022/08/18 07:54:48;;;;;;;32.00;26.80;;;21.00;99.90;;;;;;5046186;28;20512;-61
2022/08/18 07:57:23;;;;;;;33.13;25.83;;;21.00;99.90;;;;;;5044347;28;20472;-57
2022/08/18 07:59:57;;;;;;;39.40;27.00;;;21.00;99.90;;;;;;5048267;28;20457;-57
2022/08/18 08:02:39;;;;;;;34.70;27.27;;;21.10;99.90;;;;;;5053061;28;20432;-57
2022/08/18 08:05:17;;;;;;;41.20;29.10;;;21.20;99.90;;;;;;5042035;28;20448;-59
2022/08/18 08:07:54;;;;;;;41.45;30.20;;;21.40;99.90;;;;;;5036806;28;20639;-58
2022/08/18 08:10:35;;;;;;;47.60;32.70;;;21.50;99.90;;;;;;5045822;28;20213;-58
2022/08/18 08:13:17;;;;;;;38.50;29.00;;;21.70;99.90;;;;;;5046710;28;20466;-57
2022/08/18 08:15:56;;;;;;;33.50;27.30;;;21.80;99.90;;;;;;5042908;28;20482;-57
2022/08/18 08:18:36;;;;;;;38.33;27.83;;;21.90;99.90;;;;;;5036864;28;20938;-58
2022/08/18 08:21:09;;;;;;;36.63;28.47;;;22.20;99.80;;;;;;5049569;28;20459;-60
2022/08/18 08:23:45;;;;;;;38.40;29.03;;;22.50;98.30;;;;;;5037832;28;20454;-60
2022/08/18 08:26:32;;;;;;;37.00;28.67;;;22.70;97.10;;;;;;5048070;28;20453;-57
2022/08/18 08:29:20;;;;;;;34.97;28.90;;;22.90;96.20;;;;;;5053374;28;20582;-58
2022/08/18 08:31:52;;;;;;;38.40;28.97;;;23.10;95.50;;;;;;5053117;28;20428;-59
2022/08/18 08:34:27;;;;;;;38.70;27.93;;;23.20;94.80;;;;;;5053135;28;20424;-59
2022/08/18 08:37:01;;;;;;;37.90;29.80;;;23.00;94.60;;;;;;5053209;28;20458;-59
2022/08/18 08:39:40;;;;;;;35.50;28.03;;;23.00;94.90;;;;;;5053186;28;20428;-58
2022/08/18 08:42:13;;;;;;;33.20;26.90;;;23.00;94.80;;;;;;5053154;28;20448;-58
2022/08/18 08:44:48;;;;;;;31.47;27.40;;;23.10;94.80;;;;;;5053292;28;20515;-60
2022/08/18 08:49:50;;;;;;;31.20;26.43;;;23.20;94.00;;;;;;5044930;23;20860;-59
2022/08/18 08:52:24;;;;;;;29.17;24.87;;;23.20;93.70;;;;;;5012105;28;20854;-59
2022/08/18 08:54:58;;;;;;;32.80;26.33;;;23.20;93.50;;;;;;5012671;28;20521;-58
2022/08/18 08:57:32;;;;;;;30.60;25.60;;;23.20;93.70;;;;;;5015869;28;20427;-60
2022/08/18 09:00:03;;;;;;;31.27;25.13;;;23.20;93.80;;;;;;5016655;28;20441;-60
2022/08/18 09:02:55;;;;;;;31.33;25.97;;;23.40;93.50;;;;;;5016951;28;20461;-59
2022/08/18 09:05:25;;;;;;;30.80;25.10;;;23.50;93.10;;;;;;5011754;28;20458;-60
2022/08/18 09:08:13;;;;;;;32.33;26.40;;;23.50;92.80;;;;;;5016704;28;20910;-58
2022/08/18 09:11:00;;;;;;;30.17;24.10;;;23.60;92.60;;;;;;5016331;28;20510;-58
2022/08/18 09:13:51;;;;;;;28.63;24.63;;;23.60;92.30;;;;;;5017130;28;20526;-58
2022/08/18 09:16:38;;;;;;;24.50;21.77;;;23.60;92.20;;;;;;5016179;28;20482;-58
2022/08/18 09:19:27;;;;;;;25.70;22.90;;;23.70;92.00;;;;;;5015739;28;20961;-58
2022/08/18 09:22:00;;;;;;;23.87;21.33;;;23.60;91.70;;;;;;5016028;28;20513;-58
2022/08/18 09:24:32;;;;;;;24.77;21.20;;;23.60;91.60;;;;;;5016313;28;20544;-59
2022/08/18 09:27:23;;;;;;;27.60;23.80;;;23.70;91.30;;;;;;5016943;28;20433;-58
2022/08/18 09:29:54;;;;;;;28.10;23.40;;;23.80;91.30;;;;;;5015866;28;20930;-59
2022/08/18 09:32:52;;;;;;;28.53;23.77;;;24.00;90.80;;;;;;5014143;28;20553;-60
2022/08/18 09:35:55;;;;;;;27.40;24.23;;;24.10;90.20;;;;;;5014780;28;20495;-59
2022/08/18 09:41:33;;;;;;;23.83;20.70;;;23.90;90.50;;;;;;5014620;28;20455;-60
2022/08/18 09:44:10;;;;;;;23.60;19.93;;;24.00;90.20;;;;;;5015481;28;20530;-60
2022/08/18 09:46:59;;;;;;;28.00;22.83;;;24.10;89.30;;;;;;5013934;28;20466;-60
2022/08/18 09:49:45;;;;;;;24.50;21.70;;;24.10;89.30;;;;;;5014052;28;20578;-60
2022/08/18 09:52:55;;;;;;;25.47;21.37;;;24.40;88.70;;;;;;5014764;28;20470;-60
2022/08/18 09:55:56;;;;;;;23.50;20.40;;;24.40;87.30;;;;;;5014103;28;20973;-60
2022/08/18 09:58:51;;;;;;;23.70;20.67;;;24.40;86.90;;;;;;5014434;28;20565;-60
2022/08/18 10:01:49;;;;;;;22.27;19.00;;;24.40;86.80;;;;;;5008574;28;20472;-60
2022/08/18 10:04:47;;;;;;;25.80;22.30;;;24.40;85.90;;;;;;4953453;29;20554;-60
2022/08/18 10:07:29;;;;;;;24.30;21.80;;;24.30;86.10;;;;;;5001600;28;20460;-61
2022/08/18 10:10:10;;;;;;;21.97;19.67;;;24.30;86.40;;;;;;5013969;28;20478;-60
2022/08/18 10:13:01;;;;;;;23.70;20.07;;;24.30;86.40;;;;;;5013885;28;20505;-60
2022/08/18 10:15:59;;;;;;;23.53;21.00;;;24.20;86.30;;;;;;5014022;28;21008;-58
2022/08/18 10:19:00;;;;;;;22.10;19.80;;;24.10;86.50;;;;;;5014327;28;20558;-59
2022/08/18 10:21:29;;;;;;;23.60;21.17;;;24.20;86.80;;;;;;5014322;28;20464;-60
2022/08/18 10:23:59;;;;;;;22.53;20.13;;;24.40;86.30;;;;;;5012149;28;20562;-59
2022/08/18 10:27:06;;;;;;;22.17;19.70;;;24.60;85.40;;;;;;5010271;28;20494;-61
2022/08/18 10:29:54;;;;;;;21.90;19.70;;;24.80;84.40;;;;;;5012429;28;20488;-59
2022/08/18 10:32:46;;;;;;;20.87;18.50;;;25.00;83.20;;;;;;5006098;28;20454;-60
2022/08/18 10:35:54;;;;;;;23.10;20.60;;;25.10;82.00;;;;;;5009428;28;21075;-57
2022/08/18 10:38:47;;;;;;;21.00;17.23;;;25.20;82.10;;;;;;5013357;28;21108;-60
2022/08/18 10:41:22;;;;;;;21.60;19.30;;;25.10;80.60;;;;;;5017188;28;20499;-61
2022/08/18 10:43:53;;;;;;;21.90;19.17;;;24.90;80.70;;;;;;5014388;28;20438;-59
2022/08/18 10:46:24;;;;;;;22.83;19.10;;;24.70;81.40;;;;;;5014466;28;20436;-59
2022/08/18 10:49:00;;;;;;;20.80;18.70;;;24.70;82.20;;;;;;5013679;28;20562;-59
2022/08/18 10:51:40;;;;;;;20.63;17.43;;;24.70;81.90;;;;;;5013762;28;20992;-60
2022/08/18 10:54:17;;;;;;;20.03;18.00;;;25.00;81.30;;;;;;5014492;28;20873;-60
2022/08/18 10:56:49;;;;;;;19.90;17.90;;;25.10;80.30;;;;;;5014607;28;20436;-59
2022/08/18 10:59:27;;;;;;;18.10;16.40;;;25.20;79.60;;;;;;5014105;28;20552;-60
2022/08/18 11:02:13;;;;;;;16.63;15.03;;;25.30;79.30;;;;;;5014172;28;20430;-60
2022/08/18 11:04:45;;;;;;;16.70;15.03;;;25.50;78.20;;;;;;5014075;28;20449;-59
2022/08/18 11:07:18;;;;;;;19.30;16.30;;;25.60;77.00;;;;;;5014868;28;20513;-60
2022/08/18 11:09:49;;;;;;;15.30;13.70;;;25.70;76.00;;;;;;5014078;28;20465;-60
2022/08/18 11:12:42;;;;;;;16.70;15.10;;;25.70;76.00;;;;;;5013640;28;20540;-60
2022/08/18 11:15:19;;;;;;;17.23;15.53;;;25.90;75.40;;;;;;5014142;28;20430;-60
2022/08/18 11:18:01;;;;;;;16.77;14.07;;;26.10;74.40;;;;;;5013071;28;20549;-60
2022/08/18 11:20:32;;;;;;;17.43;15.60;;;26.40;73.00;;;;;;5013863;28;20527;-60
2022/08/18 11:23:01;;;;;;;16.60;15.03;;;26.60;71.30;;;;;;5013628;28;20829;-59
2022/08/18 11:25:32;;;;;;;14.97;13.50;;;26.60;70.50;;;;;;5012534;28;20529;-60
2022/08/18 11:28:01;;;;;;;15.97;14.43;;;26.60;70.00;;;;;;5013700;28;20560;-60
2022/08/18 11:30:32;;;;;;;15.20;13.70;;;26.50;69.30;;;;;;5013204;28;20870;-60
2022/08/18 11:33:00;;;;;;;16.20;14.60;;;26.50;68.60;;;;;;5013932;28;20615;-59
2022/08/18 11:35:31;;;;;;;15.43;13.93;;;26.40;68.20;;;;;;5014512;28;20455;-60
2022/08/18 11:38:00;;;;;;;13.83;12.37;;;26.30;68.10;;;;;;5013654;28;20524;-60
2022/08/18 11:40:37;;;;;;;14.63;13.23;;;26.10;69.00;;;;;;5014035;28;20534;-60
2022/08/18 11:43:10;;;;;;;12.93;11.63;;;26.10;69.30;;;;;;5013882;28;20434;-60
2022/08/18 11:45:52;;;;;;;13.23;11.93;;;26.10;69.40;;;;;;5013487;28;20435;-59
2022/08/18 11:48:24;;;;;;;14.50;13.10;;;26.20;69.10;;;;;;5013548;28;20541;-60
2022/08/18 11:51:01;;;;;;;13.27;12.07;;;26.10;68.80;;;;;;5013374;28;20467;-60
2022/08/18 11:53:38;;;;;;;12.53;11.33;;;26.20;68.80;;;;;;5014263;28;20509;-60
2022/08/18 11:56:16;;;;;;;12.60;11.30;;;26.40;67.50;;;;;;5014775;28;20523;-60
2022/08/18 11:58:45;;;;;;;11.00;9.90;;;26.70;67.00;;;;;;5013628;28;20458;-59
2022/08/18 12:01:33;;;;;;;10.20;9.30;;;27.00;65.40;;;;;;5013362;28;20948;-58
2022/08/18 12:04:21;;;;;;;8.90;8.13;;;27.50;63.30;;;;;;5015197;28;20479;-59
2022/08/18 12:06:58;;;;;;;9.27;8.43;;;27.70;61.10;;;;;;5012573;28;20532;-58
2022/08/18 12:09:32;;;;;;;9.63;8.83;;;27.90;59.70;;;;;;5013109;28;20977;-60
2022/08/18 12:12:04;;;;;;;10.00;9.00;;;27.90;59.30;;;;;;5013018;28;20473;-59
2022/08/18 12:14:35;;;;;;;11.47;9.23;;;27.70;59.70;;;;;;5013175;28;20430;-59
2022/08/18 12:17:03;;;;;;;8.23;7.23;;;27.90;59.40;;;;;;5013107;28;20510;-59
2022/08/18 12:19:31;;;;;;;8.63;7.93;;;28.50;58.30;;;;;;5012592;28;20471;-60
2022/08/18 12:22:00;;;;;;;8.90;8.10;;;29.20;56.40;;;;;;5012623;28;20548;-60
2022/08/18 12:24:33;;;;;;;8.30;7.60;;;29.50;54.60;;;;;;5013173;28;20832;-59
2022/08/18 12:27:03;;;;;;;8.17;7.40;;;29.40;54.40;;;;;;5013454;28;20431;-60
2022/08/18 12:29:30;;;;;;;8.70;7.80;;;28.90;55.70;;;;;;5012899;28;20544;-59
2022/08/18 12:31:57;;;;;;;7.67;6.93;;;28.50;55.90;;;;;;5016068;28;20481;-59
2022/08/18 12:34:26;;;;;;;8.47;7.77;;;28.30;56.60;;;;;;5017289;28;20580;-60
2022/08/18 12:36:56;;;;;;;8.80;8.00;;;28.20;57.00;;;;;;5017233;28;20935;-61
2022/08/18 12:39:23;;;;;;;9.47;8.57;;;27.90;57.50;;;;;;5017317;28;20469;-60
2022/08/18 12:41:51;;;;;;;10.40;9.40;;;27.80;57.90;;;;;;5016716;28;20471;-60
2022/08/18 12:44:19;;;;;;;8.90;8.10;;;27.70;58.10;;;;;;5016313;28;21015;-60
2022/08/18 12:46:47;;;;;;;10.00;9.10;;;27.70;57.90;;;;;;5016702;28;20491;-59
2022/08/18 12:49:17;;;;;;;9.07;8.27;;;27.70;57.90;;;;;;5016157;28;20513;-59
2022/08/18 12:51:45;;;;;;;9.00;8.10;;;27.50;58.10;;;;;;5016034;28;20492;-59
2022/08/18 12:54:12;;;;;;;9.60;6.80;;;27.30;58.60;;;;;;5016745;28;20988;-59
2022/08/18 12:56:41;;;;;;;9.00;8.17;;;27.10;59.00;;;;;;5016284;28;20861;-61
2022/08/18 12:59:10;;;;;;;8.57;7.87;;;27.10;59.30;;;;;;5016594;28;20463;-58
2022/08/18 13:01:39;;;;;;;8.73;7.93;;;27.10;59.30;;;;;;5016254;28;20516;-60
2022/08/18 13:04:07;;;;;;;9.97;8.93;;;27.10;59.20;;;;;;5016299;28;20630;-61
2022/08/18 13:06:37;;;;;;;8.33;7.60;;;27.20;59.10;;;;;;5017562;28;20539;-60
2022/08/18 13:09:05;;;;;;;9.63;8.73;;;27.30;58.80;;;;;;5016354;28;20485;-59
2022/08/18 13:11:32;;;;;;;8.70;7.77;;;27.40;58.30;;;;;;5016037;28;20512;-59
2022/08/18 13:14:00;;;;;;;8.33;7.53;;;27.40;58.20;;;;;;5015761;28;20963;-60
2022/08/18 13:16:31;;;;;;;10.20;8.47;;;27.50;58.20;;;;;;5015565;28;20474;-60
2022/08/18 13:19:00;;;;;;;9.33;8.43;;;27.40;58.10;;;;;;5015679;28;20479;-60
2022/08/18 13:21:28;;;;;;;8.97;8.07;;;27.50;57.90;;;;;;5015332;28;20487;-60
2022/08/18 13:23:56;;;;;;;9.13;7.90;;;27.60;57.50;;;;;;5015610;28;20454;-61
2022/08/18 13:26:27;;;;;;;7.57;6.77;;;27.70;57.40;;;;;;5015513;28;20460;-60